createdAt,value
2023-05-22T00:02:11.214Z,16.29
2023-05-22T00:04:40.275Z,15.08
2023-05-22T00:07:10.072Z,16.31
2023-05-22T00:09:38.345Z,16.27
2023-05-22T00:12:07.154Z,16.30
2023-05-22T00:14:35.446Z,16.29
2023-05-22T00:17:03.695Z,16.25
2023-05-22T00:19:33.386Z,16.17
2023-05-22T00:22:01.702Z,16.16
2023-05-22T00:24:32.030Z,16.10
2023-05-22T00:27:00.288Z,16.08
2023-05-22T00:29:28.528Z,16.03
2023-05-22T00:31:56.754Z,15.97
2023-05-22T00:34:25.032Z,15.95
2023-05-22T00:36:53.357Z,15.94
2023-05-22T00:39:21.927Z,15.99
2023-05-22T00:41:51.614Z,16.07
2023-05-22T00:44:19.800Z,15.93
2023-05-22T00:46:48.048Z,15.80
2023-05-22T00:49:16.257Z,15.69
2023-05-22T00:51:44.562Z,15.71
2023-05-22T00:54:14.089Z,15.72
2023-05-22T00:56:43.202Z,15.68
2023-05-22T00:59:12.912Z,15.62
2023-05-22T01:01:43.094Z,15.70
2023-05-22T01:04:12.937Z,15.67
2023-05-22T01:06:41.557Z,15.55
2023-05-22T01:09:09.904Z,15.71
2023-05-22T01:11:46.308Z,15.75
2023-05-22T01:14:23.965Z,15.76
2023-05-22T01:17:00.237Z,15.81
2023-05-22T01:20:01.624Z,15.73
2023-05-22T01:23:03.593Z,15.69
2023-05-22T01:26:03.886Z,15.50
2023-05-22T01:28:57.186Z,15.38
2023-05-22T01:31:28.939Z,15.33
2023-05-22T01:33:58.765Z,15.41
2023-05-22T01:36:32.042Z,15.64
2023-05-22T01:39:01.789Z,15.91
2023-05-22T01:41:30.751Z,16.13
2023-05-22T01:43:59.293Z,16.22
2023-05-22T01:46:29.439Z,16.11
2023-05-22T01:48:57.843Z,16.23
2023-05-22T01:51:34.998Z,16.13
2023-05-22T01:54:09.518Z,16.30
2023-05-22T01:56:49.099Z,16.32
2023-05-22T01:59:23.674Z,16.32
2023-05-22T02:01:55.473Z,16.19
2023-05-22T02:04:24.770Z,15.77
2023-05-22T02:06:55.310Z,16.05
2023-05-22T02:09:27.358Z,16.02
2023-05-22T02:11:55.753Z,15.99
2023-05-22T02:14:24.110Z,16.01
2023-05-22T02:16:53.921Z,16.00
2023-05-22T02:19:22.310Z,15.76
2023-05-22T02:21:50.710Z,16.04
2023-05-22T02:24:19.023Z,16.12
2023-05-22T02:26:47.938Z,16.04
2023-05-22T02:29:16.345Z,16.04
2023-05-22T02:31:44.617Z,16.00
2023-05-22T02:34:14.581Z,16.02
2023-05-22T02:36:43.244Z,15.92
2023-05-22T02:39:11.543Z,16.02
2023-05-22T02:41:39.773Z,15.99
2023-05-22T02:44:07.899Z,15.99
2023-05-22T02:46:36.334Z,16.03
2023-05-22T02:49:04.779Z,15.79
2023-05-22T02:51:34.490Z,15.80
2023-05-22T02:54:02.711Z,15.75
2023-05-22T02:56:31.327Z,15.80
2023-05-22T02:58:59.495Z,15.72
2023-05-22T03:01:30.659Z,15.07
2023-05-22T03:03:59.073Z,15.69
2023-05-22T03:06:27.300Z,15.72
2023-05-22T03:08:56.952Z,15.48
2023-05-22T03:11:25.238Z,15.76
2023-05-22T03:13:53.482Z,15.74
2023-05-22T03:16:21.761Z,15.69
2023-05-22T03:18:51.814Z,15.65
2023-05-22T03:21:20.065Z,15.55
2023-05-22T03:23:49.459Z,15.53
2023-05-22T03:26:19.096Z,15.54
2023-05-22T03:28:47.613Z,15.18
2023-05-22T03:31:15.875Z,15.49
2023-05-22T03:33:44.177Z,15.52
2023-05-22T03:36:12.528Z,15.19
2023-05-22T03:38:41.664Z,15.52
2023-05-22T03:41:10.052Z,15.53
2023-05-22T03:43:40.349Z,15.56
2023-05-22T03:46:10.856Z,15.54
2023-05-22T03:48:40.584Z,15.52
2023-05-22T03:51:08.827Z,15.47
2023-05-22T03:53:36.993Z,15.70
2023-05-22T03:56:05.345Z,15.78
2023-05-22T03:58:33.586Z,15.86
2023-05-22T04:01:03.864Z,16.01
2023-05-22T04:03:32.304Z,16.06
2023-05-22T04:06:00.564Z,16.05
2023-05-22T04:08:28.689Z,15.89
2023-05-22T04:10:56.820Z,15.81
2023-05-22T04:13:25.077Z,15.89
2023-05-22T04:15:53.743Z,16.01
2023-05-22T04:18:23.451Z,16.00
2023-05-22T04:20:52.096Z,16.01
2023-05-22T04:23:20.350Z,16.13
2023-05-22T04:25:49.141Z,16.20
2023-05-22T04:28:22.483Z,16.42
2023-05-22T04:30:51.033Z,16.56
2023-05-22T04:33:19.376Z,16.72
2023-05-22T04:35:48.978Z,16.87
2023-05-22T04:38:18.524Z,16.92
2023-05-22T04:40:46.747Z,16.99
2023-05-22T04:43:14.954Z,17.12
2023-05-22T04:45:43.634Z,17.19
2023-05-22T04:48:12.763Z,17.32
2023-05-22T04:50:41.334Z,17.52
2023-05-22T04:53:12.817Z,17.63
2023-05-22T04:55:41.027Z,17.59
2023-05-22T04:58:09.357Z,17.88
2023-05-22T05:00:37.935Z,17.73
2023-05-22T05:03:08.293Z,18.12
2023-05-22T05:05:36.811Z,18.11
2023-05-22T05:08:05.049Z,18.12
2023-05-22T05:10:34.712Z,18.17
2023-05-22T05:13:02.919Z,18.34
2023-05-22T05:15:31.116Z,18.26
2023-05-22T05:17:59.418Z,18.34
2023-05-22T05:20:27.744Z,18.31
2023-05-22T05:22:56.154Z,18.34
2023-05-22T05:25:24.348Z,18.41
2023-05-22T05:27:53.989Z,18.51
2023-05-22T05:30:22.187Z,18.66
2023-05-22T05:32:50.455Z,18.62
2023-05-22T05:35:18.633Z,18.68
2023-05-22T05:37:46.772Z,19.01
2023-05-22T05:40:16.395Z,19.27
2023-05-22T05:42:44.571Z,19.46
2023-05-22T05:45:15.613Z,19.59
2023-05-22T05:47:43.798Z,19.75
2023-05-22T05:50:15.721Z,19.92
2023-05-22T05:52:44.054Z,20.02
2023-05-22T05:55:12.209Z,20.14
2023-05-22T05:57:40.900Z,20.22
2023-05-22T06:00:11.553Z,20.34
2023-05-22T06:02:42.033Z,20.14
2023-05-22T06:05:11.233Z,20.46
2023-05-22T06:07:39.983Z,20.59
2023-05-22T06:10:09.677Z,20.72
2023-05-22T06:12:37.968Z,20.81
2023-05-22T06:15:07.509Z,20.93
2023-05-22T06:17:37.363Z,20.90
2023-05-22T06:20:09.347Z,21.18
2023-05-22T06:22:37.781Z,21.29
2023-05-22T06:25:06.881Z,21.43
2023-05-22T06:27:35.603Z,21.54
2023-05-22T06:30:04.878Z,21.65
2023-05-22T06:32:33.473Z,21.77
2023-05-22T06:35:01.879Z,21.81
2023-05-22T06:37:35.661Z,21.44
2023-05-22T06:40:04.097Z,21.87
2023-05-22T06:42:32.306Z,21.83
2023-05-22T06:45:00.538Z,22.13
2023-05-22T06:47:28.912Z,22.04
2023-05-22T06:49:57.142Z,21.92
2023-05-22T06:52:25.274Z,21.95
2023-05-22T06:54:55.351Z,22.12
2023-05-22T06:57:24.208Z,22.24
2023-05-22T06:59:52.618Z,22.31
2023-05-22T07:02:20.910Z,22.28
2023-05-22T07:04:49.183Z,22.17
2023-05-22T07:07:17.378Z,22.54
2023-05-22T07:09:45.798Z,22.51
2023-05-22T07:12:15.411Z,22.41
2023-05-22T07:14:43.772Z,22.12
2023-05-22T07:17:11.907Z,22.44
2023-05-22T07:19:40.057Z,22.66
2023-05-22T07:22:08.288Z,22.70
2023-05-22T07:24:36.542Z,22.72
2023-05-22T07:27:04.915Z,22.72
2023-05-22T07:29:34.443Z,22.90
2023-05-22T07:32:02.644Z,23.01
2023-05-22T07:34:33.390Z,22.91
2023-05-22T07:37:02.192Z,22.90
2023-05-22T07:39:30.367Z,22.82
2023-05-22T07:41:59.513Z,22.81
2023-05-22T07:44:29.178Z,22.81
2023-05-22T07:46:59.682Z,22.88
2023-05-22T07:49:28.028Z,23.05
2023-05-22T07:51:56.217Z,23.26
2023-05-22T07:54:24.690Z,23.51
2023-05-22T07:56:53.721Z,23.59
2023-05-22T07:59:22.162Z,23.56
2023-05-22T08:01:50.456Z,23.37
2023-05-22T08:04:20.360Z,23.30
2023-05-22T08:06:48.633Z,23.32
2023-05-22T08:09:16.991Z,23.49
2023-05-22T08:11:45.196Z,23.64
2023-05-22T08:14:13.436Z,23.82
2023-05-22T08:16:41.713Z,23.98
2023-05-22T08:19:10.155Z,24.15
2023-05-22T08:21:40.502Z,24.37
2023-05-22T08:24:09.356Z,24.52
2023-05-22T08:26:37.844Z,24.38
2023-05-22T08:29:05.976Z,24.38
2023-05-22T08:31:34.677Z,24.43
2023-05-22T08:34:04.879Z,24.43
2023-05-22T08:36:34.293Z,24.13
2023-05-22T08:39:04.174Z,24.34
2023-05-22T08:41:32.421Z,24.44
2023-05-22T08:44:00.707Z,24.41
2023-05-22T08:46:31.871Z,24.34
2023-05-22T08:49:00.233Z,24.19
2023-05-22T08:51:31.691Z,24.14
2023-05-22T08:54:02.094Z,24.33
2023-05-22T08:56:35.181Z,24.47
2023-05-22T08:59:07.056Z,24.63
2023-05-22T09:01:35.559Z,24.82
2023-05-22T09:04:05.051Z,24.96
2023-05-22T09:06:33.409Z,24.85
2023-05-22T09:11:32.422Z,25.10
2023-05-22T09:14:09.299Z,25.34
2023-05-22T09:16:46.700Z,25.44
2023-05-22T09:19:15.358Z,25.44
2023-05-22T09:21:44.587Z,25.62
2023-05-22T09:24:13.179Z,25.37
2023-05-22T09:26:42.882Z,25.09
2023-05-22T09:29:11.242Z,24.81
2023-05-22T09:31:43.959Z,24.89
2023-05-22T09:34:14.503Z,24.86
2023-05-22T09:36:43.135Z,24.73
2023-05-22T09:39:11.404Z,24.84
2023-05-22T09:41:41.369Z,24.94
2023-05-22T09:44:17.580Z,25.08
2023-05-22T09:46:47.360Z,25.04
2023-05-22T09:49:17.243Z,25.13
2023-05-22T09:51:49.024Z,25.06
2023-05-22T09:54:18.260Z,24.97
2023-05-22T09:56:50.348Z,25.07
2023-05-22T09:59:23.778Z,25.26
2023-05-22T10:01:52.328Z,25.31
2023-05-22T10:04:23.367Z,25.40
2023-05-22T10:06:54.177Z,25.55
2023-05-22T10:09:26.320Z,25.60
2023-05-22T10:11:59.232Z,25.49
2023-05-22T10:14:30.930Z,25.26
2023-05-22T10:17:02.351Z,25.19
2023-05-22T10:19:33.158Z,25.26
2023-05-22T10:22:02.192Z,25.41
2023-05-22T10:24:31.154Z,25.50
2023-05-22T10:26:59.447Z,25.51
2023-05-22T10:29:37.472Z,25.43
2023-05-22T10:32:10.787Z,25.59
2023-05-22T10:34:49.948Z,25.37
2023-05-22T10:37:31.737Z,25.22
2023-05-22T10:40:05.032Z,25.25
2023-05-22T10:42:33.418Z,25.40
2023-05-22T10:45:04.849Z,25.47
2023-05-22T10:47:34.787Z,25.36
2023-05-22T10:50:09.426Z,25.34
2023-05-22T10:52:37.828Z,25.28
2023-05-22T10:55:10.376Z,25.28
2023-05-22T10:57:39.912Z,25.42
2023-05-22T11:00:18.854Z,25.38
2023-05-22T11:02:47.386Z,25.66
2023-05-22T11:05:35.406Z,25.77
2023-05-22T11:08:35.403Z,25.88
2023-05-22T11:11:13.938Z,25.75
2023-05-22T11:13:43.760Z,25.79
2023-05-22T11:16:13.837Z,25.66
2023-05-22T11:18:42.089Z,26.03
2023-05-22T11:21:14.056Z,26.08
2023-05-22T11:23:42.945Z,25.80
2023-05-22T11:26:22.665Z,25.86
2023-05-22T11:28:53.480Z,26.06
2023-05-22T11:31:24.502Z,26.29
2023-05-22T11:33:52.716Z,26.52
2023-05-22T11:36:22.843Z,26.66
2023-05-22T11:38:51.057Z,26.84
2023-05-22T11:41:19.290Z,26.96
2023-05-22T11:43:47.573Z,26.90
2023-05-22T11:46:16.068Z,26.72
2023-05-22T11:48:45.962Z,26.59
2023-05-22T11:51:14.246Z,26.75
2023-05-22T11:53:42.941Z,26.97
2023-05-22T11:56:11.490Z,27.22
2023-05-22T11:58:39.698Z,27.23
2023-05-22T12:01:07.982Z,26.69
2023-05-22T12:03:36.311Z,26.43
2023-05-22T12:06:06.809Z,26.43
2023-05-22T12:08:35.702Z,26.38
2023-05-22T12:11:07.057Z,26.29
2023-05-22T12:13:35.256Z,26.66
2023-05-22T12:16:03.612Z,26.71
2023-05-22T12:18:37.735Z,26.57
2023-05-22T12:21:09.204Z,26.54
2023-05-22T12:23:37.371Z,26.84
2023-05-22T12:26:11.458Z,27.15
2023-05-22T12:28:40.455Z,27.46
2023-05-22T12:31:08.710Z,27.80
2023-05-22T12:33:36.969Z,27.73
2023-05-22T12:36:10.549Z,27.45
2023-05-22T12:38:40.355Z,27.42
2023-05-22T12:41:08.595Z,27.65
2023-05-22T12:43:36.866Z,27.49
2023-05-22T12:46:05.127Z,27.21
2023-05-22T12:48:33.375Z,26.95
2023-05-22T12:51:01.896Z,26.99
2023-05-22T12:53:31.671Z,27.10
2023-05-22T12:55:59.845Z,26.99
2023-05-22T12:58:28.145Z,26.92
2023-05-22T13:00:56.413Z,26.95
2023-05-22T13:03:24.666Z,27.03
2023-05-22T13:05:52.845Z,27.42
2023-05-22T13:08:21.064Z,28.02
2023-05-22T13:10:50.780Z,28.58
2023-05-22T13:13:19.011Z,29.14
2023-05-22T13:15:47.422Z,29.59
2023-05-22T13:18:16.601Z,29.89
2023-05-22T13:20:45.128Z,29.65
2023-05-22T13:23:13.357Z,29.03
2023-05-22T13:25:41.791Z,29.48
2023-05-22T13:28:11.501Z,29.50
2023-05-22T13:30:40.328Z,29.46
2023-05-22T13:33:08.836Z,29.18
2023-05-22T13:35:37.020Z,28.97
2023-05-22T13:38:05.370Z,28.72
2023-05-22T13:40:33.707Z,28.97
2023-05-22T13:43:02.032Z,29.18
2023-05-22T13:45:31.692Z,29.28
2023-05-22T13:47:59.912Z,29.12
2023-05-22T13:50:28.172Z,28.98
2023-05-22T13:52:56.688Z,29.03
2023-05-22T13:55:25.012Z,29.15
2023-05-22T13:57:53.130Z,29.78
2023-05-22T14:00:22.486Z,30.42
2023-05-22T14:02:52.450Z,30.93
2023-05-22T14:05:21.428Z,31.01
2023-05-22T14:07:50.547Z,31.29
2023-05-22T14:10:19.491Z,31.54
2023-05-22T14:12:47.714Z,31.15
2023-05-22T14:15:17.814Z,29.93
2023-05-22T14:17:46.974Z,29.58
2023-05-22T14:20:16.695Z,29.63
2023-05-22T14:22:56.613Z,29.45
2023-05-22T14:25:25.901Z,29.73
2023-05-22T14:27:54.358Z,30.00
2023-05-22T14:30:22.545Z,30.12
2023-05-22T14:32:51.032Z,30.17
2023-05-22T14:35:20.867Z,30.58
2023-05-22T14:37:49.198Z,30.43
2023-05-22T14:40:17.558Z,30.18
2023-05-22T14:42:45.917Z,30.05
2023-05-22T14:45:14.139Z,29.83
2023-05-22T14:47:43.314Z,30.37
2023-05-22T14:50:19.199Z,31.11
2023-05-22T14:52:50.310Z,31.65
2023-05-22T14:55:19.104Z,31.63
2023-05-22T14:57:47.295Z,30.84
2023-05-22T15:00:16.542Z,30.31
2023-05-22T15:02:44.918Z,30.77
2023-05-22T15:05:13.228Z,31.12
2023-05-22T15:07:44.452Z,31.08
2023-05-22T15:10:14.713Z,31.22
2023-05-22T15:12:42.909Z,31.68
2023-05-22T15:15:11.913Z,32.41
2023-05-22T15:17:42.582Z,32.67
2023-05-22T15:20:12.283Z,33.49
2023-05-22T15:22:40.734Z,33.11
2023-05-22T15:25:11.976Z,32.82
2023-05-22T15:27:42.337Z,33.04
2023-05-22T15:30:12.380Z,33.41
2023-05-22T15:32:40.799Z,33.04
2023-05-22T15:35:10.020Z,32.30
2023-05-22T15:37:38.296Z,32.07
2023-05-22T15:40:09.827Z,33.23
2023-05-22T15:42:38.336Z,33.41
2023-05-22T15:45:09.510Z,33.22
2023-05-22T15:47:37.706Z,33.34
2023-05-22T15:50:06.932Z,33.94
2023-05-22T15:52:35.065Z,34.89
2023-05-22T15:55:03.332Z,35.96
2023-05-22T15:57:31.513Z,35.53
2023-05-22T15:59:59.673Z,35.22
2023-05-22T16:02:29.317Z,35.04
2023-05-22T16:04:57.707Z,34.69
2023-05-22T16:07:25.894Z,34.15
2023-05-22T16:09:54.411Z,33.39
2023-05-22T16:12:22.757Z,33.22
2023-05-22T16:14:51.021Z,33.20
2023-05-22T16:17:19.247Z,32.98
2023-05-22T16:19:48.818Z,32.66
2023-05-22T16:22:17.113Z,32.23
2023-05-22T16:24:45.355Z,31.76
2023-05-22T16:27:13.581Z,31.25
2023-05-22T16:29:42.288Z,30.56
2023-05-22T16:32:10.514Z,29.85
2023-05-22T16:34:39.169Z,29.33
2023-05-22T16:37:08.997Z,28.86
2023-05-22T16:39:39.957Z,28.63
2023-05-22T16:42:08.309Z,28.31
2023-05-22T16:44:36.504Z,27.96
2023-05-22T16:47:05.000Z,27.68
2023-05-22T16:49:33.268Z,27.33
2023-05-22T16:52:01.460Z,27.05
2023-05-22T16:54:31.039Z,26.99
2023-05-22T16:56:59.246Z,26.87
2023-05-22T16:59:27.428Z,26.78
2023-05-22T17:01:55.870Z,26.57
2023-05-22T17:04:24.127Z,26.32
2023-05-22T17:06:53.778Z,26.12
2023-05-22T17:09:22.006Z,25.93
2023-05-22T17:11:51.606Z,25.88
2023-05-22T17:14:21.829Z,25.80
2023-05-22T17:16:50.244Z,25.72
2023-05-22T17:19:18.911Z,25.70
2023-05-22T17:21:47.244Z,25.62
2023-05-22T17:24:15.463Z,25.52
2023-05-22T17:26:44.126Z,25.45
2023-05-22T17:29:13.703Z,25.53
2023-05-22T17:31:42.044Z,25.54
2023-05-22T17:34:10.292Z,25.58
2023-05-22T17:36:38.597Z,25.25
2023-05-22T17:39:06.767Z,25.53
2023-05-22T17:41:35.169Z,25.49
2023-05-22T17:44:03.322Z,25.49
2023-05-22T17:46:33.308Z,25.46
2023-05-22T17:49:01.529Z,25.37
2023-05-22T17:51:29.756Z,25.36
2023-05-22T17:53:59.177Z,25.35
2023-05-22T17:56:27.925Z,25.35
2023-05-22T17:58:56.247Z,25.30
2023-05-22T18:01:24.686Z,25.22
2023-05-22T18:03:54.456Z,25.08
2023-05-22T18:06:24.349Z,25.07
2023-05-22T18:08:53.327Z,25.00
2023-05-22T18:11:21.523Z,24.93
2023-05-22T18:13:49.751Z,24.84
2023-05-22T18:16:18.975Z,24.75
2023-05-22T18:18:47.170Z,24.49
2023-05-22T18:21:16.964Z,24.44
2023-05-22T18:23:45.199Z,24.38
2023-05-22T18:26:13.453Z,24.20
2023-05-22T18:28:42.726Z,24.20
2023-05-22T18:31:11.124Z,23.65
2023-05-22T18:33:40.281Z,24.01
2023-05-22T18:36:08.550Z,23.94
2023-05-22T18:38:38.248Z,23.75
2023-05-22T18:41:07.143Z,23.81
2023-05-22T18:43:35.429Z,23.78
2023-05-22T18:46:03.659Z,23.63
2023-05-22T18:48:33.313Z,23.65
2023-05-22T18:51:01.726Z,23.53
2023-05-22T18:53:30.187Z,23.53
2023-05-22T18:55:59.842Z,23.41
2023-05-22T18:58:28.068Z,23.24
2023-05-22T19:00:56.836Z,23.19
2023-05-22T19:03:25.116Z,23.11
2023-05-22T19:05:53.877Z,22.99
2023-05-22T19:08:22.275Z,22.90
2023-05-22T19:10:50.460Z,22.83
2023-05-22T19:13:20.293Z,22.85
2023-05-22T19:15:48.606Z,22.79
2023-05-22T19:18:17.125Z,22.54
2023-05-22T19:20:45.409Z,22.35
2023-05-22T19:23:14.063Z,22.24
2023-05-22T19:25:42.366Z,22.20
2023-05-22T19:28:10.577Z,22.07
2023-05-22T19:30:41.345Z,21.98
2023-05-22T19:33:11.203Z,21.92
2023-05-22T19:35:39.743Z,21.74
2023-05-22T19:40:36.261Z,21.51
2023-05-22T19:43:04.584Z,21.43
2023-05-22T19:45:32.712Z,21.36
2023-05-22T19:48:02.527Z,21.41
2023-05-22T19:50:30.839Z,21.45
2023-05-22T19:52:59.696Z,21.40
2023-05-22T19:55:27.937Z,21.33
2023-05-22T19:57:56.162Z,21.27
2023-05-22T20:00:28.532Z,21.11
2023-05-22T20:02:56.754Z,21.05
2023-05-22T20:05:26.455Z,20.96
2023-05-22T20:07:54.732Z,20.83
2023-05-22T20:10:24.015Z,20.71
2023-05-22T20:12:54.255Z,20.71
2023-05-22T20:15:23.078Z,20.63
2023-05-22T20:17:53.189Z,20.54
2023-05-22T20:20:21.668Z,20.45
2023-05-22T20:22:51.630Z,20.19
2023-05-22T20:25:21.398Z,20.13
2023-05-22T20:27:49.600Z,20.42
2023-05-22T20:30:17.942Z,20.32
2023-05-22T20:32:46.992Z,20.27
2023-05-22T20:35:18.997Z,20.24
2023-05-22T20:37:47.666Z,20.22
2023-05-22T20:40:17.776Z,20.24
2023-05-22T20:42:47.654Z,20.22
2023-05-22T20:45:16.601Z,20.15
2023-05-22T20:47:44.856Z,20.12
2023-05-22T20:50:13.360Z,20.03
2023-05-22T20:52:41.648Z,20.00
2023-05-22T20:55:10.892Z,19.99
2023-05-22T20:57:40.619Z,19.92
2023-05-22T21:00:14.051Z,19.96
2023-05-22T21:02:42.458Z,19.55
2023-05-22T21:05:11.383Z,19.90
2023-05-22T21:07:39.573Z,19.91
2023-05-22T21:10:09.146Z,19.87
2023-05-22T21:12:37.557Z,19.72
2023-05-22T21:15:08.811Z,19.82
2023-05-22T21:17:37.229Z,19.76
2023-05-22T21:20:05.856Z,19.74
2023-05-22T21:22:34.128Z,19.76
2023-05-22T21:25:02.270Z,19.71
2023-05-22T21:27:30.472Z,19.63
2023-05-22T21:29:58.769Z,19.63
2023-05-22T21:32:28.388Z,19.60
2023-05-22T21:34:56.668Z,19.30
2023-05-22T21:37:25.782Z,19.50
2023-05-22T21:39:53.901Z,19.50
2023-05-22T21:42:22.521Z,19.33
2023-05-22T21:44:50.670Z,19.33
2023-05-22T21:47:19.063Z,19.23
2023-05-22T21:49:48.667Z,19.20
2023-05-22T21:52:17.181Z,19.24
2023-05-22T21:54:45.373Z,19.25
2023-05-22T21:57:13.593Z,19.29
2023-05-22T21:59:41.776Z,19.23
2023-05-22T22:02:10.078Z,19.13
2023-05-22T22:04:38.235Z,19.10
2023-05-22T22:07:07.910Z,19.07
2023-05-22T22:09:36.080Z,18.85
2023-05-22T22:12:04.373Z,18.80
2023-05-22T22:14:32.596Z,18.90
2023-05-22T22:17:01.003Z,18.86
2023-05-22T22:19:29.382Z,18.66
2023-05-22T22:21:57.847Z,18.81
2023-05-22T22:24:27.492Z,18.80
2023-05-22T22:26:55.647Z,18.76
2023-05-22T22:29:23.801Z,18.58
2023-05-22T22:31:53.083Z,18.57
2023-05-22T22:34:21.480Z,18.56
2023-05-22T22:36:49.659Z,18.47
2023-05-22T22:39:17.944Z,18.50
2023-05-22T22:41:47.479Z,18.42
2023-05-22T22:44:15.705Z,18.36
2023-05-22T22:46:44.309Z,18.36
2023-05-22T22:49:12.868Z,18.29
2023-05-22T22:51:41.126Z,18.17
2023-05-22T22:54:09.269Z,18.20
2023-05-22T22:56:37.503Z,18.19
2023-05-22T22:59:07.117Z,18.16
2023-05-22T23:01:35.338Z,18.12
2023-05-22T23:04:03.694Z,18.11
2023-05-22T23:06:33.110Z,17.83
2023-05-22T23:09:02.855Z,18.12
2023-05-22T23:11:37.488Z,18.18
2023-05-22T23:14:08.578Z,18.19
2023-05-22T23:16:37.295Z,18.21
2023-05-22T23:19:05.940Z,18.05
2023-05-22T23:21:34.765Z,18.00
2023-05-22T23:24:05.412Z,17.96
2023-05-22T23:26:34.384Z,18.00
2023-05-22T23:29:03.006Z,17.67
2023-05-22T23:31:32.869Z,17.77
2023-05-22T23:34:01.169Z,17.78
2023-05-22T23:36:30.279Z,17.68
2023-05-22T23:38:58.394Z,17.74
2023-05-22T23:41:27.621Z,17.68
2023-05-22T23:43:55.898Z,17.56
2023-05-22T23:46:24.729Z,17.52
2023-05-22T23:48:54.374Z,17.58
2023-05-22T23:51:22.513Z,17.62
2023-05-22T23:53:50.744Z,17.60
2023-05-22T23:56:18.873Z,17.41
2023-05-22T23:58:47.036Z,17.60
